createdAt,value
2022-08-14T00:00:15.018Z,7.60
2022-08-14T00:05:23.990Z,9.48
2022-08-14T00:10:52.614Z,8.68
2022-08-14T00:16:10.027Z,8.18
2022-08-14T00:21:39.984Z,8.45
2022-08-14T00:26:52.680Z,8.75
2022-08-14T00:32:52.057Z,8.98
2022-08-14T00:37:57.192Z,8.57
2022-08-14T00:48:49.183Z,8.90
2022-08-14T00:53:58.610Z,8.80
2022-08-14T00:59:05.949Z,9.00
2022-08-14T01:04:37.320Z,8.55
2022-08-14T01:09:50.420Z,8.48
2022-08-14T01:15:14.825Z,8.63
2022-08-14T01:20:49.560Z,8.70
2022-08-14T01:26:02.055Z,8.68
2022-08-14T01:31:15.377Z,8.80
2022-08-14T01:36:27.969Z,9.90
2022-08-14T01:41:58.365Z,8.77
2022-08-14T01:47:05.790Z,8.95
2022-08-14T01:52:34.406Z,9.27
2022-08-14T01:58:01.725Z,9.35
2022-08-14T02:03:30.209Z,9.30
2022-08-14T02:08:53.338Z,9.82
2022-08-14T02:14:07.896Z,9.65
2022-08-14T02:19:15.598Z,10.30
2022-08-14T02:24:39.230Z,9.77
2022-08-14T02:29:59.091Z,9.95
2022-08-14T02:35:11.815Z,9.88
2022-08-14T02:40:32.045Z,9.48
2022-08-14T02:45:44.645Z,9.50
2022-08-14T02:50:56.285Z,9.85
2022-08-14T02:56:30.052Z,10.20
2022-08-14T03:01:54.761Z,10.65
2022-08-14T03:07:07.348Z,10.93
2022-08-14T03:12:13.086Z,10.23
2022-08-14T03:17:31.849Z,10.18
2022-08-14T03:22:49.844Z,10.25
2022-08-14T03:28:02.960Z,10.80
2022-08-14T03:33:37.957Z,10.43
2022-08-14T03:39:12.572Z,9.80
2022-08-14T03:45:19.789Z,10.88
2022-08-14T03:50:02.433Z,9.77
2022-08-14T03:55:09.854Z,10.50
2022-08-14T04:00:44.273Z,9.50
2022-08-14T04:05:54.855Z,10.20
2022-08-14T04:11:02.777Z,9.60
2022-08-14T04:16:18.869Z,9.93
2022-08-14T04:21:39.796Z,9.65
2022-08-14T04:26:46.548Z,10.23
2022-08-14T04:33:00.017Z,10.45
2022-08-14T04:37:36.429Z,9.73
2022-08-14T04:43:00.181Z,10.68
2022-08-14T04:48:39.244Z,10.60
2022-08-14T04:53:55.203Z,9.95
2022-08-14T04:59:11.837Z,10.13
2022-08-14T05:04:27.390Z,10.80
2022-08-14T05:09:33.368Z,10.18
2022-08-14T05:14:53.279Z,9.50
2022-08-14T05:21:04.309Z,10.45
2022-08-14T05:25:45.902Z,10.80
2022-08-14T05:30:56.301Z,9.35
2022-08-14T05:36:24.101Z,9.80
2022-08-14T05:41:53.876Z,9.48
2022-08-14T05:47:04.220Z,8.60
2022-08-14T05:52:15.928Z,8.82
2022-08-14T05:57:29.837Z,9.68
2022-08-14T06:02:39.998Z,9.45
2022-08-14T06:07:57.943Z,8.32
2022-08-14T06:13:09.063Z,7.82
2022-08-14T06:18:19.508Z,8.02
2022-08-14T06:23:44.015Z,7.35
2022-08-14T06:29:14.504Z,7.07
2022-08-14T06:35:10.372Z,6.90
2022-08-14T06:40:26.952Z,7.20
2022-08-14T06:51:14.827Z,6.60
2022-08-14T06:56:54.166Z,7.18
2022-08-14T07:02:21.302Z,6.30
2022-08-14T07:07:33.969Z,5.90
2022-08-14T07:13:01.514Z,6.55
2022-08-14T07:18:15.429Z,6.78
2022-08-14T07:23:27.136Z,6.22
2022-08-14T07:28:47.298Z,6.75
2022-08-14T07:34:04.163Z,6.32
2022-08-14T07:39:13.889Z,5.18
2022-08-14T07:44:29.154Z,5.95
2022-08-14T07:49:49.127Z,5.57
2022-08-14T07:55:03.574Z,5.47
2022-08-14T08:00:31.060Z,5.82
2022-08-14T08:05:52.728Z,4.55
2022-08-14T08:11:14.991Z,5.35
2022-08-14T08:16:24.715Z,5.72
2022-08-14T08:21:36.120Z,6.20
2022-08-14T08:26:44.753Z,6.10
2022-08-14T08:31:52.411Z,5.65
2022-08-14T08:37:07.033Z,5.90
2022-08-14T08:42:24.488Z,5.88
2022-08-14T08:47:58.364Z,5.55
2022-08-14T08:53:12.006Z,5.88
2022-08-14T08:58:24.915Z,5.40
2022-08-14T09:03:40.439Z,5.55
2022-08-14T09:08:56.235Z,5.60
2022-08-14T09:14:06.732Z,5.40
2022-08-14T09:19:26.305Z,5.78
2022-08-14T09:24:45.673Z,6.00
2022-08-14T09:29:54.893Z,5.65
2022-08-14T09:35:13.539Z,5.25
2022-08-14T09:40:30.621Z,5.30
2022-08-14T09:45:58.632Z,5.80
2022-08-14T09:51:25.382Z,5.60
2022-08-14T09:56:34.664Z,4.75
2022-08-14T10:01:53.837Z,5.40
2022-08-14T10:07:09.012Z,5.03
2022-08-14T10:12:29.116Z,4.78
2022-08-14T10:17:43.249Z,4.72
2022-08-14T10:23:12.810Z,4.57
2022-08-14T10:28:51.581Z,4.63
2022-08-14T10:34:13.239Z,4.43
2022-08-14T10:39:32.316Z,4.47
2022-08-14T10:45:03.309Z,4.72
2022-08-14T10:50:38.015Z,4.60
2022-08-14T10:56:05.079Z,4.53
2022-08-14T11:01:41.120Z,4.40
2022-08-14T11:06:59.814Z,4.32
2022-08-14T11:12:34.865Z,4.43
2022-08-14T11:18:02.029Z,4.35
2022-08-14T11:23:23.237Z,4.03
2022-08-14T11:28:56.482Z,3.72
2022-08-14T11:34:34.805Z,3.97
2022-08-14T11:40:00.904Z,3.80
2022-08-14T11:45:10.974Z,3.40
2022-08-14T11:50:58.626Z,3.53
2022-08-14T11:56:14.677Z,3.75
2022-08-14T12:01:53.784Z,3.72
2022-08-14T12:07:17.701Z,3.50
2022-08-14T12:12:35.669Z,3.40
2022-08-14T12:17:49.747Z,3.50
2022-08-14T12:23:39.073Z,3.53
2022-08-14T12:28:59.975Z,3.20
2022-08-14T12:34:10.518Z,3.67
2022-08-14T12:39:39.605Z,3.50
2022-08-14T12:44:51.332Z,3.38
2022-08-14T12:50:06.735Z,3.60
2022-08-14T12:55:22.015Z,3.65
2022-08-14T13:00:30.919Z,3.30
2022-08-14T13:05:47.056Z,3.15
2022-08-14T13:10:56.121Z,3.20
2022-08-14T13:16:20.178Z,3.67
2022-08-14T13:21:58.217Z,3.80
2022-08-14T13:27:11.118Z,3.33
2022-08-14T13:32:40.667Z,3.45
2022-08-14T13:37:52.393Z,3.67
2022-08-14T13:43:04.720Z,3.58
2022-08-14T13:48:19.132Z,3.30
2022-08-14T13:54:10.610Z,3.35
2022-08-14T13:59:20.618Z,2.92
2022-08-14T14:04:49.519Z,2.97
2022-08-14T14:10:06.262Z,3.38
2022-08-14T14:15:33.913Z,3.60
2022-08-14T14:20:55.172Z,3.80
2022-08-14T14:26:00.623Z,3.55
2022-08-14T14:31:10.888Z,3.72
2022-08-14T14:36:22.116Z,3.65
2022-08-14T14:41:38.738Z,3.50
2022-08-14T14:46:53.038Z,3.40
2022-08-14T14:52:17.185Z,3.58
2022-08-14T15:03:16.652Z,3.50
2022-08-14T15:08:55.554Z,3.72
2022-08-14T15:14:00.492Z,3.60
2022-08-14T15:19:12.561Z,3.70
2022-08-14T15:24:26.899Z,3.72
2022-08-14T15:29:32.513Z,3.75
2022-08-14T15:34:55.804Z,3.80
2022-08-14T15:40:10.109Z,3.80
2022-08-14T15:45:41.742Z,3.88
2022-08-14T15:50:49.136Z,3.60
2022-08-14T15:55:58.177Z,3.67
2022-08-14T16:01:50.845Z,3.65
2022-08-14T16:12:41.238Z,4.18
2022-08-14T16:18:07.816Z,4.50
2022-08-14T16:23:36.413Z,4.13
2022-08-14T16:28:47.044Z,4.22
2022-08-14T16:39:39.153Z,3.92
2022-08-14T16:44:51.237Z,4.15
2022-08-14T16:50:08.679Z,4.07
2022-08-14T16:55:18.961Z,3.90
2022-08-14T17:00:44.004Z,3.88
2022-08-14T17:05:54.602Z,4.15
2022-08-14T17:11:10.993Z,3.58
2022-08-14T17:16:37.143Z,4.30
2022-08-14T17:21:46.897Z,3.95
2022-08-14T17:27:10.245Z,4.18
2022-08-14T17:32:28.269Z,4.43
2022-08-14T17:37:58.279Z,5.00
2022-08-14T17:43:10.914Z,4.00
2022-08-14T17:49:10.031Z,4.20
2022-08-14T17:54:02.682Z,3.72
2022-08-14T17:59:17.667Z,4.47
2022-08-14T18:04:35.656Z,4.30
2022-08-14T18:09:57.219Z,4.50
2022-08-14T18:15:33.746Z,4.57
2022-08-14T18:21:40.729Z,4.50
2022-08-14T18:26:36.479Z,4.82
2022-08-14T18:31:45.676Z,4.90
2022-08-14T18:37:25.310Z,4.72
2022-08-14T18:42:52.623Z,5.10
2022-08-14T18:48:51.537Z,4.75
2022-08-14T18:54:02.411Z,4.82
2022-08-14T18:59:27.055Z,4.70
2022-08-14T19:04:46.669Z,4.38
2022-08-14T19:09:59.734Z,4.93
2022-08-14T19:15:13.884Z,5.07
2022-08-14T19:20:38.373Z,4.70
2022-08-14T19:25:56.513Z,4.60
2022-08-14T19:31:46.514Z,5.00
2022-08-14T19:37:09.890Z,5.10
2022-08-14T19:42:35.627Z,4.97
2022-08-14T19:48:07.482Z,5.18
2022-08-14T19:53:28.151Z,5.32
2022-08-14T19:58:54.047Z,5.22
2022-08-14T20:04:02.738Z,5.28
2022-08-14T20:11:05.638Z,5.60
2022-08-14T20:14:54.227Z,5.25
2022-08-14T20:20:15.902Z,5.47
2022-08-14T20:25:56.502Z,5.05
2022-08-14T20:31:36.469Z,5.28
2022-08-14T20:37:02.100Z,4.40
2022-08-14T20:42:38.067Z,5.38
2022-08-14T20:48:07.430Z,5.30
2022-08-14T20:53:33.220Z,5.53
2022-08-14T20:58:47.912Z,5.05
2022-08-14T21:04:04.090Z,4.88
2022-08-14T21:09:15.431Z,5.00
2022-08-14T21:14:38.461Z,5.53
2022-08-14T21:20:25.377Z,5.40
2022-08-14T21:25:37.959Z,5.32
2022-08-14T21:31:04.205Z,5.40
2022-08-14T21:36:21.733Z,5.57
2022-08-14T21:41:58.873Z,5.32
2022-08-14T21:47:09.202Z,5.18
2022-08-14T21:58:46.010Z,4.97
2022-08-14T22:03:24.533Z,5.72
2022-08-14T22:08:38.489Z,5.03
2022-08-14T22:13:46.958Z,5.22
2022-08-14T22:18:56.758Z,5.75
2022-08-14T22:24:25.998Z,5.30
2022-08-14T22:30:01.045Z,5.40
2022-08-14T22:35:09.154Z,5.13
2022-08-14T22:40:56.535Z,5.97
2022-08-14T22:45:55.086Z,5.28
2022-08-14T22:51:07.423Z,5.68
2022-08-14T22:56:20.306Z,5.25
2022-08-14T23:01:57.250Z,5.65
2022-08-14T23:07:04.631Z,5.57
2022-08-14T23:12:28.708Z,5.70
2022-08-14T23:17:41.712Z,5.70
2022-08-14T23:22:57.116Z,5.78
2022-08-14T23:28:34.127Z,5.65
2022-08-14T23:33:52.046Z,6.18
2022-08-14T23:38:59.751Z,5.95
2022-08-14T23:44:11.776Z,5.18
2022-08-14T23:49:16.474Z,5.75
2022-08-14T23:54:48.006Z,5.60
2022-08-14T23:59:54.776Z,6.40
